sensor_id;sensor_type;location;lat;lon;timestamp;pressure;altitude;pressure_sealevel;temperature;humidity
9139;BME280;4604;48.616;9.548;2023-05-11T00:02:17;96705.50;;;12.06;92.40
9139;BME280;4604;48.616;9.548;2023-05-11T00:04:44;96679.91;;;11.88;92.89
9139;BME280;4604;48.616;9.548;2023-05-11T00:07:12;96714.78;;;12.10;92.42
9139;BME280;4604;48.616;9.548;2023-05-11T00:09:39;96677.00;;;11.82;92.93
9139;BME280;4604;48.616;9.548;2023-05-11T00:12:06;96680.41;;;11.92;93.41
9139;BME280;4604;48.616;9.548;2023-05-11T00:14:33;96708.66;;;12.09;93.48
9139;BME280;4604;48.616;9.548;2023-05-11T00:16:59;96699.53;;;11.86;93.88
9139;BME280;4604;48.616;9.548;2023-05-11T00:19:26;96690.91;;;11.84;93.71
9139;BME280;4604;48.616;9.548;2023-05-11T00:21:55;96714.78;;;11.92;94.11
9139;BME280;4604;48.616;9.548;2023-05-11T00:24:24;96712.00;;;11.93;94.11
9139;BME280;4604;48.616;9.548;2023-05-11T00:26:51;96674.50;;;11.80;93.86
9139;BME280;4604;48.616;9.548;2023-05-11T00:29:18;96696.59;;;11.89;94.37
9139;BME280;4604;48.616;9.548;2023-05-11T00:31:44;96699.25;;;11.89;95.23
9139;BME280;4604;48.616;9.548;2023-05-11T00:34:12;96705.13;;;12.01;94.93
9139;BME280;4604;48.616;9.548;2023-05-11T00:36:39;96702.41;;;11.92;95.26
9139;BME280;4604;48.616;9.548;2023-05-11T00:39:07;96690.84;;;11.93;95.10
9139;BME280;4604;48.616;9.548;2023-05-11T00:41:35;96707.03;;;11.90;95.63
9139;BME280;4604;48.616;9.548;2023-05-11T00:44:02;96695.50;;;11.82;96.44
9139;BME280;4604;48.616;9.548;2023-05-11T00:46:29;96704.28;;;11.82;97.06
9139;BME280;4604;48.616;9.548;2023-05-11T00:48:56;96694.09;;;11.69;97.98
9139;BME280;4604;48.616;9.548;2023-05-11T00:51:23;96682.09;;;11.57;98.15
9139;BME280;4604;48.616;9.548;2023-05-11T00:53:50;96687.97;;;11.69;98.27
9139;BME280;4604;48.616;9.548;2023-05-11T00:56:17;96695.81;;;11.78;98.45
9139;BME280;4604;48.616;9.548;2023-05-11T00:58:47;96692.13;;;11.71;98.56
9139;BME280;4604;48.616;9.548;2023-05-11T01:01:14;96707.91;;;11.81;98.30
9139;BME280;4604;48.616;9.548;2023-05-11T01:03:43;96703.06;;;11.76;98.85
9139;BME280;4604;48.616;9.548;2023-05-11T01:06:15;96686.78;;;11.63;99.50
9139;BME280;4604;48.616;9.548;2023-05-11T01:08:47;96688.81;;;11.69;99.17
9139;BME280;4604;48.616;9.548;2023-05-11T01:11:20;96659.59;;;11.71;99.43
9139;BME280;4604;48.616;9.548;2023-05-11T01:13:55;96702.31;;;11.84;100.00
9139;BME280;4604;48.616;9.548;2023-05-11T01:16:25;96696.41;;;11.72;100.00
9139;BME280;4604;48.616;9.548;2023-05-11T01:18:58;96700.44;;;11.76;100.00
9139;BME280;4604;48.616;9.548;2023-05-11T01:21:29;96693.25;;;11.69;100.00
9139;BME280;4604;48.616;9.548;2023-05-11T01:24:20;96699.50;;;11.68;100.00
9139;BME280;4604;48.616;9.548;2023-05-11T01:27:03;96688.44;;;11.64;100.00
9139;BME280;4604;48.616;9.548;2023-05-11T01:29:48;96694.53;;;11.65;100.00
9139;BME280;4604;48.616;9.548;2023-05-11T01:32:22;96692.88;;;11.64;100.00
9139;BME280;4604;48.616;9.548;2023-05-11T01:34:54;96695.09;;;11.68;100.00
9139;BME280;4604;48.616;9.548;2023-05-11T01:37:25;96688.13;;;11.67;100.00
9139;BME280;4604;48.616;9.548;2023-05-11T01:39:55;96688.94;;;11.68;100.00
9139;BME280;4604;48.616;9.548;2023-05-11T01:42:27;96701.25;;;11.77;100.00
9139;BME280;4604;48.616;9.548;2023-05-11T01:44:56;96702.06;;;11.77;100.00
9139;BME280;4604;48.616;9.548;2023-05-11T01:47:28;96679.22;;;11.68;100.00
9139;BME280;4604;48.616;9.548;2023-05-11T01:49:56;96667.59;;;11.61;100.00
9139;BME280;4604;48.616;9.548;2023-05-11T01:52:25;96685.63;;;11.84;100.00
9139;BME280;4604;48.616;9.548;2023-05-11T01:54:53;96694.19;;;11.95;100.00
9139;BME280;4604;48.616;9.548;2023-05-11T01:57:22;96693.69;;;11.82;100.00
9139;BME280;4604;48.616;9.548;2023-05-11T01:59:49;96704.59;;;11.79;100.00
9139;BME280;4604;48.616;9.548;2023-05-11T02:02:17;96709.56;;;11.82;100.00
9139;BME280;4604;48.616;9.548;2023-05-11T02:04:47;96684.50;;;11.68;100.00
9139;BME280;4604;48.616;9.548;2023-05-11T02:07:16;96703.00;;;11.86;100.00
9139;BME280;4604;48.616;9.548;2023-05-11T02:09:45;96674.75;;;11.69;100.00
9139;BME280;4604;48.616;9.548;2023-05-11T02:12:15;96675.72;;;11.68;100.00
9139;BME280;4604;48.616;9.548;2023-05-11T02:14:44;96694.09;;;11.87;100.00
9139;BME280;4604;48.616;9.548;2023-05-11T02:17:14;96701.06;;;11.88;100.00
9139;BME280;4604;48.616;9.548;2023-05-11T02:19:43;96694.38;;;11.84;100.00
9139;BME280;4604;48.616;9.548;2023-05-11T02:22:11;96695.78;;;11.88;100.00
9139;BME280;4604;48.616;9.548;2023-05-11T02:24:39;96689.03;;;11.76;100.00
9139;BME280;4604;48.616;9.548;2023-05-11T02:27:07;96694.81;;;11.79;100.00
9139;BME280;4604;48.616;9.548;2023-05-11T02:29:33;96703.91;;;11.77;100.00
9139;BME280;4604;48.616;9.548;2023-05-11T02:32:05;96702.41;;;11.74;100.00
9139;BME280;4604;48.616;9.548;2023-05-11T02:34:38;96700.38;;;11.68;100.00
9139;BME280;4604;48.616;9.548;2023-05-11T02:37:09;96698.31;;;11.62;100.00
9139;BME280;4604;48.616;9.548;2023-05-11T02:39:40;96669.25;;;11.44;100.00
9139;BME280;4604;48.616;9.548;2023-05-11T02:42:12;96692.66;;;11.57;100.00
9139;BME280;4604;48.616;9.548;2023-05-11T02:44:44;96694.47;;;11.56;100.00
9139;BME280;4604;48.616;9.548;2023-05-11T02:47:14;96697.19;;;11.47;100.00
9139;BME280;4604;48.616;9.548;2023-05-11T02:49:44;96696.94;;;11.58;100.00
9139;BME280;4604;48.616;9.548;2023-05-11T02:52:14;96704.50;;;11.53;100.00
9139;BME280;4604;48.616;9.548;2023-05-11T02:54:43;96687.91;;;11.43;100.00
9139;BME280;4604;48.616;9.548;2023-05-11T02:57:10;96678.28;;;11.24;100.00
9139;BME280;4604;48.616;9.548;2023-05-11T02:59:37;96698.69;;;11.31;100.00
9139;BME280;4604;48.616;9.548;2023-05-11T03:02:04;96688.13;;;11.31;100.00
9139;BME280;4604;48.616;9.548;2023-05-11T03:04:32;96683.88;;;11.39;100.00
9139;BME280;4604;48.616;9.548;2023-05-11T03:06:59;96683.44;;;11.43;100.00
9139;BME280;4604;48.616;9.548;2023-05-11T03:09:26;96685.81;;;11.46;100.00
9139;BME280;4604;48.616;9.548;2023-05-11T03:11:54;96687.81;;;11.52;100.00
9139;BME280;4604;48.616;9.548;2023-05-11T03:14:21;96686.59;;;11.65;100.00
9139;BME280;4604;48.616;9.548;2023-05-11T03:16:49;96669.00;;;11.55;100.00
9139;BME280;4604;48.616;9.548;2023-05-11T03:19:16;96685.88;;;11.54;100.00
9139;BME280;4604;48.616;9.548;2023-05-11T03:21:43;96654.75;;;11.30;100.00
9139;BME280;4604;48.616;9.548;2023-05-11T03:24:12;96678.94;;;11.53;100.00
9139;BME280;4604;48.616;9.548;2023-05-11T03:26:40;96674.75;;;11.51;100.00
9139;BME280;4604;48.616;9.548;2023-05-11T03:29:10;96680.13;;;11.59;100.00
9139;BME280;4604;48.616;9.548;2023-05-11T03:31:38;96661.16;;;11.46;100.00
9139;BME280;4604;48.616;9.548;2023-05-11T03:34:05;96685.25;;;11.61;100.00
9139;BME280;4604;48.616;9.548;2023-05-11T03:36:32;96688.75;;;11.61;100.00
9139;BME280;4604;48.616;9.548;2023-05-11T03:39:00;96668.19;;;11.55;100.00
9139;BME280;4604;48.616;9.548;2023-05-11T03:41:29;96673.09;;;11.50;100.00
9139;BME280;4604;48.616;9.548;2023-05-11T03:43:58;96670.53;;;11.58;100.00
9139;BME280;4604;48.616;9.548;2023-05-11T03:46:27;96643.97;;;11.42;100.00
9139;BME280;4604;48.616;9.548;2023-05-11T03:48:55;96638.13;;;11.38;100.00
9139;BME280;4604;48.616;9.548;2023-05-11T03:51:22;96672.72;;;11.63;100.00
9139;BME280;4604;48.616;9.548;2023-05-11T03:53:49;96645.16;;;11.47;100.00
9139;BME280;4604;48.616;9.548;2023-05-11T03:56:16;96666.91;;;11.59;100.00
9139;BME280;4604;48.616;9.548;2023-05-11T03:58:43;96669.94;;;11.64;100.00
9139;BME280;4604;48.616;9.548;2023-05-11T04:01:12;96646.66;;;11.50;100.00
9139;BME280;4604;48.616;9.548;2023-05-11T04:03:47;96669.94;;;11.64;100.00
9139;BME280;4604;48.616;9.548;2023-05-11T04:06:15;96662.91;;;11.55;100.00
9139;BME280;4604;48.616;9.548;2023-05-11T04:08:42;96669.25;;;11.62;100.00
9139;BME280;4604;48.616;9.548;2023-05-11T04:11:08;96668.56;;;11.60;100.00
9139;BME280;4604;48.616;9.548;2023-05-11T04:13:35;96662.75;;;11.56;100.00
9139;BME280;4604;48.616;9.548;2023-05-11T04:16:02;96671.75;;;11.64;100.00
9139;BME280;4604;48.616;9.548;2023-05-11T04:18:29;96662.06;;;11.54;100.00
9139;BME280;4604;48.616;9.548;2023-05-11T04:20:57;96666.91;;;11.59;100.00
9139;BME280;4604;48.616;9.548;2023-05-11T04:23:24;96668.88;;;11.57;100.00
9139;BME280;4604;48.616;9.548;2023-05-11T04:25:52;96642.00;;;11.44;100.00
9139;BME280;4604;48.616;9.548;2023-05-11T04:28:19;96661.94;;;11.56;100.00
9139;BME280;4604;48.616;9.548;2023-05-11T04:30:51;96668.28;;;11.63;100.00
9139;BME280;4604;48.616;9.548;2023-05-11T04:33:19;96673.56;;;11.63;100.00
9139;BME280;4604;48.616;9.548;2023-05-11T04:35:48;96677.78;;;11.56;100.00
9139;BME280;4604;48.616;9.548;2023-05-11T04:38:16;96678.63;;;11.56;100.00
9139;BME280;4604;48.616;9.548;2023-05-11T04:40:43;96668.63;;;11.50;100.00
9139;BME280;4604;48.616;9.548;2023-05-11T04:43:10;96669.31;;;11.52;100.00
9139;BME280;4604;48.616;9.548;2023-05-11T04:45:36;96658.06;;;11.50;100.00
9139;BME280;4604;48.616;9.548;2023-05-11T04:48:04;96681.31;;;11.65;100.00
9139;BME280;4604;48.616;9.548;2023-05-11T04:50:31;96653.59;;;11.51;100.00
9139;BME280;4604;48.616;9.548;2023-05-11T04:52:58;96674.53;;;11.62;100.00
9139;BME280;4604;48.616;9.548;2023-05-11T04:55:26;96668.03;;;11.56;100.00
9139;BME280;4604;48.616;9.548;2023-05-11T04:57:52;96682.00;;;11.67;100.00
9139;BME280;4604;48.616;9.548;2023-05-11T05:00:20;96681.00;;;11.68;100.00
9139;BME280;4604;48.616;9.548;2023-05-11T05:02:47;96683.66;;;11.68;100.00
9139;BME280;4604;48.616;9.548;2023-05-11T05:05:15;96680.03;;;11.69;100.00
9139;BME280;4604;48.616;9.548;2023-05-11T05:07:41;96673.94;;;11.68;100.00
9139;BME280;4604;48.616;9.548;2023-05-11T05:10:09;96687.91;;;11.78;100.00
9139;BME280;4604;48.616;9.548;2023-05-11T05:12:38;96683.97;;;11.83;100.00
9139;BME280;4604;48.616;9.548;2023-05-11T05:15:06;96676.88;;;11.83;100.00
9139;BME280;4604;48.616;9.548;2023-05-11T05:17:33;96678.16;;;11.79;100.00
9139;BME280;4604;48.616;9.548;2023-05-11T05:20:00;96676.56;;;11.86;100.00
9139;BME280;4604;48.616;9.548;2023-05-11T05:22:27;96687.53;;;11.91;100.00
9139;BME280;4604;48.616;9.548;2023-05-11T05:24:53;96689.03;;;11.94;100.00
9139;BME280;4604;48.616;9.548;2023-05-11T05:27:20;96674.31;;;11.91;100.00
9139;BME280;4604;48.616;9.548;2023-05-11T05:29:48;96690.03;;;11.93;100.00
9139;BME280;4604;48.616;9.548;2023-05-11T05:32:15;96682.25;;;11.91;100.00
9139;BME280;4604;48.616;9.548;2023-05-11T05:34:41;96690.91;;;12.02;100.00
9139;BME280;4604;48.616;9.548;2023-05-11T05:37:11;96690.91;;;12.02;100.00
9139;BME280;4604;48.616;9.548;2023-05-11T05:39:37;96697.03;;;12.02;100.00
9139;BME280;4604;48.616;9.548;2023-05-11T05:42:04;96699.75;;;12.10;100.00
9139;BME280;4604;48.616;9.548;2023-05-11T05:44:31;96700.56;;;12.11;100.00
9139;BME280;4604;48.616;9.548;2023-05-11T05:46:59;96702.84;;;12.06;100.00
9139;BME280;4604;48.616;9.548;2023-05-11T05:49:26;96706.31;;;12.06;100.00
9139;BME280;4604;48.616;9.548;2023-05-11T05:51:53;96697.56;;;12.06;100.00
9139;BME280;4604;48.616;9.548;2023-05-11T05:54:20;96702.03;;;12.05;100.00
9139;BME280;4604;48.616;9.548;2023-05-11T05:56:46;96698.38;;;12.06;100.00
9139;BME280;4604;48.616;9.548;2023-05-11T05:59:14;96703.00;;;12.04;100.00
9139;BME280;4604;48.616;9.548;2023-05-11T06:01:44;96704.44;;;11.98;100.00
9139;BME280;4604;48.616;9.548;2023-05-11T06:04:13;96716.16;;;11.96;100.00
9139;BME280;4604;48.616;9.548;2023-05-11T06:06:40;96705.72;;;11.94;100.00
9139;BME280;4604;48.616;9.548;2023-05-11T06:09:07;96716.75;;;11.90;100.00
9139;BME280;4604;48.616;9.548;2023-05-11T06:11:34;96713.97;;;11.91;100.00
9139;BME280;4604;48.616;9.548;2023-05-11T06:14:01;96713.72;;;11.85;100.00
9139;BME280;4604;48.616;9.548;2023-05-11T06:16:28;96720.13;;;11.82;100.00
9139;BME280;4604;48.616;9.548;2023-05-11T06:18:55;96721.13;;;11.81;100.00
9139;BME280;4604;48.616;9.548;2023-05-11T06:21:23;96700.81;;;11.64;100.00
9139;BME280;4604;48.616;9.548;2023-05-11T06:23:50;96716.75;;;11.72;100.00
9139;BME280;4604;48.616;9.548;2023-05-11T06:26:17;96714.34;;;11.78;100.00
9139;BME280;4604;48.616;9.548;2023-05-11T06:28:44;96715.28;;;11.77;100.00
9139;BME280;4604;48.616;9.548;2023-05-11T06:31:11;96715.91;;;11.71;100.00
9139;BME280;4604;48.616;9.548;2023-05-11T06:33:38;96713.97;;;11.73;100.00
9139;BME280;4604;48.616;9.548;2023-05-11T06:36:05;96717.94;;;11.77;100.00
9139;BME280;4604;48.616;9.548;2023-05-11T06:38:34;96702.84;;;11.70;100.00
9139;BME280;4604;48.616;9.548;2023-05-11T06:41:00;96714.78;;;11.74;100.00
9139;BME280;4604;48.616;9.548;2023-05-11T06:43:27;96715.47;;;11.76;100.00
9139;BME280;4604;48.616;9.548;2023-05-11T06:45:54;96715.97;;;11.79;100.00
9139;BME280;4604;48.616;9.548;2023-05-11T06:48:21;96702.47;;;11.65;100.00
9139;BME280;4604;48.616;9.548;2023-05-11T06:50:50;96719.38;;;11.72;100.00
9139;BME280;4604;48.616;9.548;2023-05-11T06:53:17;96713.88;;;11.65;100.00
9139;BME280;4604;48.616;9.548;2023-05-11T06:55:45;96714.31;;;11.61;100.00
9139;BME280;4604;48.616;9.548;2023-05-11T06:58:13;96713.03;;;11.65;100.00
9139;BME280;4604;48.616;9.548;2023-05-11T07:00:41;96717.56;;;11.54;100.00
9139;BME280;4604;48.616;9.548;2023-05-11T07:03:08;96710.34;;;11.56;100.00
9139;BME280;4604;48.616;9.548;2023-05-11T07:05:35;96714.94;;;11.72;100.00
9139;BME280;4604;48.616;9.548;2023-05-11T07:08:03;96719.06;;;11.75;100.00
9139;BME280;4604;48.616;9.548;2023-05-11T07:10:31;96717.94;;;11.77;100.00
9139;BME280;4604;48.616;9.548;2023-05-11T07:12:59;96717.97;;;11.95;100.00
9139;BME280;4604;48.616;9.548;2023-05-11T07:15:25;96723.94;;;11.97;100.00
9139;BME280;4604;48.616;9.548;2023-05-11T07:17:52;96695.69;;;11.62;100.00
9139;BME280;4604;48.616;9.548;2023-05-11T07:20:19;96719.72;;;11.87;100.00
9139;BME280;4604;48.616;9.548;2023-05-11T07:22:46;96718.78;;;11.78;100.00
9139;BME280;4604;48.616;9.548;2023-05-11T07:25:13;96717.16;;;11.95;100.00
9139;BME280;4604;48.616;9.548;2023-05-11T07:27:40;96716.63;;;11.91;100.00
9139;BME280;4604;48.616;9.548;2023-05-11T07:30:09;96716.75;;;12.08;100.00
9139;BME280;4604;48.616;9.548;2023-05-11T07:32:36;96718.94;;;12.12;100.00
9139;BME280;4604;48.616;9.548;2023-05-11T07:35:03;96703.75;;;12.14;100.00
9139;BME280;4604;48.616;9.548;2023-05-11T07:37:30;96722.22;;;12.32;100.00
9139;BME280;4604;48.616;9.548;2023-05-11T07:39:57;96719.03;;;12.29;100.00
9139;BME280;4604;48.616;9.548;2023-05-11T07:42:24;96725.22;;;12.37;100.00
9139;BME280;4604;48.616;9.548;2023-05-11T07:44:51;96719.25;;;12.35;100.00
9139;BME280;4604;48.616;9.548;2023-05-11T07:47:20;96721.75;;;12.37;100.00
9139;BME280;4604;48.616;9.548;2023-05-11T07:49:47;96718.69;;;12.50;100.00
9139;BME280;4604;48.616;9.548;2023-05-11T07:52:14;96707.09;;;12.51;100.00
9139;BME280;4604;48.616;9.548;2023-05-11T07:54:42;96715.69;;;12.45;100.00
9139;BME280;4604;48.616;9.548;2023-05-11T07:57:08;96713.72;;;12.47;100.00
9139;BME280;4604;48.616;9.548;2023-05-11T07:59:38;96705.88;;;12.37;100.00
9139;BME280;4604;48.616;9.548;2023-05-11T08:02:05;96717.91;;;12.57;100.00
9139;BME280;4604;48.616;9.548;2023-05-11T08:04:35;96710.53;;;12.69;100.00
9139;BME280;4604;48.616;9.548;2023-05-11T08:07:02;96717.19;;;12.81;100.00
9139;BME280;4604;48.616;9.548;2023-05-11T08:09:29;96708.00;;;12.59;100.00
9139;BME280;4604;48.616;9.548;2023-05-11T08:11:56;96715.00;;;12.69;100.00
9139;BME280;4604;48.616;9.548;2023-05-11T08:14:25;96711.53;;;12.68;100.00
9139;BME280;4604;48.616;9.548;2023-05-11T08:16:52;96704.88;;;12.64;100.00
9139;BME280;4604;48.616;9.548;2023-05-11T08:19:19;96701.22;;;12.65;100.00
9139;BME280;4604;48.616;9.548;2023-05-11T08:21:47;96715.22;;;12.75;100.00
9139;BME280;4604;48.616;9.548;2023-05-11T08:24:14;96698.78;;;12.72;100.00
9139;BME280;4604;48.616;9.548;2023-05-11T08:26:41;96717.06;;;12.83;100.00
9139;BME280;4604;48.616;9.548;2023-05-11T08:29:09;96705.13;;;12.87;100.00
9139;BME280;4604;48.616;9.548;2023-05-11T08:31:36;96708.13;;;12.92;100.00
9139;BME280;4604;48.616;9.548;2023-05-11T08:34:04;96708.47;;;12.89;100.00
9139;BME280;4604;48.616;9.548;2023-05-11T08:36:31;96715.25;;;12.92;100.00
9139;BME280;4604;48.616;9.548;2023-05-11T08:39:00;96694.19;;;12.82;100.00
9139;BME280;4604;48.616;9.548;2023-05-11T08:41:27;96715.47;;;12.98;100.00
9139;BME280;4604;48.616;9.548;2023-05-11T08:43:54;96720.97;;;13.05;100.00
9139;BME280;4604;48.616;9.548;2023-05-11T08:46:28;96716.97;;;13.01;100.00
9139;BME280;4604;48.616;9.548;2023-05-11T08:48:55;96709.84;;;13.01;100.00
9139;BME280;4604;48.616;9.548;2023-05-11T08:51:23;96717.50;;;13.13;100.00
9139;BME280;4604;48.616;9.548;2023-05-11T08:53:51;96715.41;;;13.24;100.00
9139;BME280;4604;48.616;9.548;2023-05-11T08:56:20;96721.22;;;12.94;100.00
9139;BME280;4604;48.616;9.548;2023-05-11T08:58:49;96710.50;;;12.95;100.00
9139;BME280;4604;48.616;9.548;2023-05-11T09:01:18;96699.19;;;12.85;100.00
9139;BME280;4604;48.616;9.548;2023-05-11T09:03:48;96713.03;;;12.71;100.00
9139;BME280;4604;48.616;9.548;2023-05-11T09:06:16;96714.41;;;12.83;100.00
9139;BME280;4604;48.616;9.548;2023-05-11T09:08:43;96709.78;;;12.85;100.00
9139;BME280;4604;48.616;9.548;2023-05-11T09:11:12;96720.31;;;12.77;100.00
9139;BME280;4604;48.616;9.548;2023-05-11T09:13:40;96710.56;;;12.77;100.00
9139;BME280;4604;48.616;9.548;2023-05-11T09:16:07;96726.66;;;12.84;100.00
9139;BME280;4604;48.616;9.548;2023-05-11T09:18:34;96714.31;;;13.01;100.00
9139;BME280;4604;48.616;9.548;2023-05-11T09:21:01;96691.03;;;12.78;100.00
9139;BME280;4604;48.616;9.548;2023-05-11T09:23:28;96711.22;;;12.79;100.00
9139;BME280;4604;48.616;9.548;2023-05-11T09:25:54;96701.47;;;12.80;100.00
9139;BME280;4604;48.616;9.548;2023-05-11T09:28:23;96716.81;;;13.02;100.00
9139;BME280;4604;48.616;9.548;2023-05-11T09:30:52;96698.53;;;12.83;100.00
9139;BME280;4604;48.616;9.548;2023-05-11T09:33:23;96706.97;;;12.95;100.00
9139;BME280;4604;48.616;9.548;2023-05-11T09:35:52;96706.00;;;12.96;100.00
9139;BME280;4604;48.616;9.548;2023-05-11T09:38:19;96699.72;;;12.97;100.00
9139;BME280;4604;48.616;9.548;2023-05-11T09:40:52;96704.50;;;12.93;100.00
9139;BME280;4604;48.616;9.548;2023-05-11T09:43:20;96705.59;;;12.74;100.00
9139;BME280;4604;48.616;9.548;2023-05-11T09:45:48;96712.16;;;12.70;100.00
9139;BME280;4604;48.616;9.548;2023-05-11T09:48:30;96699.28;;;12.41;100.00
9139;BME280;4604;48.616;9.548;2023-05-11T09:51:05;96708.94;;;12.24;100.00
9139;BME280;4604;48.616;9.548;2023-05-11T09:53:37;96714.47;;;12.13;100.00
9139;BME280;4604;48.616;9.548;2023-05-11T09:56:05;96717.97;;;11.95;100.00
9139;BME280;4604;48.616;9.548;2023-05-11T09:58:49;96718.78;;;11.78;100.00
9139;BME280;4604;48.616;9.548;2023-05-11T10:01:18;96711.41;;;11.64;100.00
9139;BME280;4604;48.616;9.548;2023-05-11T10:03:51;96713.03;;;11.65;100.00
9139;BME280;4604;48.616;9.548;2023-05-11T10:06:19;96702.66;;;11.63;100.00
9139;BME280;4604;48.616;9.548;2023-05-11T10:08:46;96718.03;;;11.86;100.00
9139;BME280;4604;48.616;9.548;2023-05-11T10:11:14;96719.56;;;11.88;100.00
9139;BME280;4604;48.616;9.548;2023-05-11T10:13:42;96715.09;;;11.89;100.00
9139;BME280;4604;48.616;9.548;2023-05-11T10:16:11;96719.56;;;11.88;100.00
9139;BME280;4604;48.616;9.548;2023-05-11T10:18:38;96714.56;;;12.03;100.00
9139;BME280;4604;48.616;9.548;2023-05-11T10:21:09;96712.38;;;11.98;100.00
9139;BME280;4604;48.616;9.548;2023-05-11T10:23:36;96711.06;;;12.20;100.00
9139;BME280;4604;48.616;9.548;2023-05-11T10:26:04;96711.19;;;12.19;100.00
9139;BME280;4604;48.616;9.548;2023-05-11T10:28:31;96710.22;;;12.20;100.00
9139;BME280;4604;48.616;9.548;2023-05-11T10:30:59;96709.56;;;12.18;100.00
9139;BME280;4604;48.616;9.548;2023-05-11T10:33:26;96674.78;;;12.13;100.00
9139;BME280;4604;48.616;9.548;2023-05-11T10:35:54;96694.66;;;12.17;100.00
9139;BME280;4604;48.616;9.548;2023-05-11T10:38:23;96704.38;;;12.34;100.00
9139;BME280;4604;48.616;9.548;2023-05-11T10:40:51;96704.06;;;12.37;100.00
9139;BME280;4604;48.616;9.548;2023-05-11T10:43:37;96695.19;;;12.47;100.00
9139;BME280;4604;48.616;9.548;2023-05-11T10:46:23;96685.75;;;12.44;100.00
9139;BME280;4604;48.616;9.548;2023-05-11T10:52:01;96692.72;;;12.53;100.00
9139;BME280;4604;48.616;9.548;2023-05-11T10:54:44;96689.25;;;12.53;100.00
9139;BME280;4604;48.616;9.548;2023-05-11T10:57:33;96686.84;;;12.68;100.00
9139;BME280;4604;48.616;9.548;2023-05-11T11:00:23;96689.22;;;12.79;100.00
9139;BME280;4604;48.616;9.548;2023-05-11T11:03:09;96687.06;;;12.82;100.00
9139;BME280;4604;48.616;9.548;2023-05-11T11:05:37;96685.09;;;12.84;100.00
9139;BME280;4604;48.616;9.548;2023-05-11T11:08:05;96684.28;;;12.92;100.00
9139;BME280;4604;48.616;9.548;2023-05-11T11:10:36;96680.03;;;12.99;100.00
9139;BME280;4604;48.616;9.548;2023-05-11T11:13:04;96684.84;;;13.04;100.00
9139;BME280;4604;48.616;9.548;2023-05-11T11:16:08;96685.50;;;13.06;100.00
9139;BME280;4604;48.616;9.548;2023-05-11T11:18:35;96686.72;;;13.20;100.00
9139;BME280;4604;48.616;9.548;2023-05-11T11:21:02;96662.06;;;12.77;100.00
9139;BME280;4604;48.616;9.548;2023-05-11T11:23:56;96682.28;;;12.78;100.00
9139;BME280;4604;48.616;9.548;2023-05-11T11:26:48;96674.22;;;12.96;100.00
9139;BME280;4604;48.616;9.548;2023-05-11T11:29:15;96686.13;;;12.92;100.00
9139;BME280;4604;48.616;9.548;2023-05-11T11:31:42;96673.63;;;13.18;100.00
9139;BME280;4604;48.616;9.548;2023-05-11T11:34:31;96675.78;;;13.15;100.00
9139;BME280;4604;48.616;9.548;2023-05-11T11:37:04;96679.50;;;13.30;100.00
9139;BME280;4604;48.616;9.548;2023-05-11T11:39:52;96685.66;;;13.47;100.00
9139;BME280;4604;48.616;9.548;2023-05-11T11:42:38;96677.03;;;13.53;100.00
9139;BME280;4604;48.616;9.548;2023-05-11T11:45:30;96683.69;;;13.57;100.00
9139;BME280;4604;48.616;9.548;2023-05-11T11:48:08;96677.69;;;13.47;100.00
9139;BME280;4604;48.616;9.548;2023-05-11T11:50:39;96685.66;;;13.47;100.00
9139;BME280;4604;48.616;9.548;2023-05-11T11:53:09;96680.53;;;13.62;100.00
9139;BME280;4604;48.616;9.548;2023-05-11T11:55:46;96667.72;;;13.33;100.00
9139;BME280;4604;48.616;9.548;2023-05-11T12:01:20;96677.94;;;13.19;100.00
9139;BME280;4604;48.616;9.548;2023-05-11T12:03:55;96683.13;;;13.29;100.00
9139;BME280;4604;48.616;9.548;2023-05-11T12:06:26;96676.28;;;13.18;100.00
9139;BME280;4604;48.616;9.548;2023-05-11T12:09:01;96678.34;;;13.33;100.00
9139;BME280;4604;48.616;9.548;2023-05-11T12:11:29;96678.66;;;13.30;100.00
9139;BME280;4604;48.616;9.548;2023-05-11T12:13:56;96681.63;;;13.26;100.00
9139;BME280;4604;48.616;9.548;2023-05-11T12:16:26;96660.50;;;13.09;100.00
9139;BME280;4604;48.616;9.548;2023-05-11T12:18:54;96680.22;;;13.14;100.00
9139;BME280;4604;48.616;9.548;2023-05-11T12:21:23;96676.59;;;13.15;100.00
9139;BME280;4604;48.616;9.548;2023-05-11T12:23:51;96672.13;;;13.24;100.00
9139;BME280;4604;48.616;9.548;2023-05-11T12:26:19;96672.22;;;13.32;100.00
9139;BME280;4604;48.616;9.548;2023-05-11T12:28:47;96674.38;;;13.53;100.00
9139;BME280;4604;48.616;9.548;2023-05-11T12:31:15;96675.91;;;13.64;100.00
9139;BME280;4604;48.616;9.548;2023-05-11T12:33:46;96667.78;;;13.82;100.00
9139;BME280;4604;48.616;9.548;2023-05-11T12:36:13;96672.25;;;13.57;100.00
9139;BME280;4604;48.616;9.548;2023-05-11T12:38:44;96668.44;;;13.59;100.00
9139;BME280;4604;48.616;9.548;2023-05-11T12:41:17;96669.94;;;13.54;100.00
9139;BME280;4604;48.616;9.548;2023-05-11T12:43:45;96657.75;;;13.26;100.00
9139;BME280;4604;48.616;9.548;2023-05-11T12:46:12;96658.88;;;13.24;100.00
9139;BME280;4604;48.616;9.548;2023-05-11T12:48:39;96660.41;;;13.26;100.00
9139;BME280;4604;48.616;9.548;2023-05-11T12:51:07;96659.03;;;13.14;100.00
9139;BME280;4604;48.616;9.548;2023-05-11T12:53:34;96653.59;;;13.24;100.00
9139;BME280;4604;48.616;9.548;2023-05-11T12:56:02;96628.06;;;13.06;100.00
9139;BME280;4604;48.616;9.548;2023-05-11T12:58:35;96662.09;;;13.27;100.00
9139;BME280;4604;48.616;9.548;2023-05-11T13:01:03;96654.00;;;13.37;100.00
9139;BME280;4604;48.616;9.548;2023-05-11T13:03:32;96653.50;;;13.42;100.00
9139;BME280;4604;48.616;9.548;2023-05-11T13:06:08;96642.41;;;13.63;100.00
9139;BME280;4604;48.616;9.548;2023-05-11T13:08:35;96650.19;;;13.64;99.99
9139;BME280;4604;48.616;9.548;2023-05-11T13:11:19;96652.03;;;13.72;98.92
9139;BME280;4604;48.616;9.548;2023-05-11T13:13:47;96643.09;;;13.73;96.42
9139;BME280;4604;48.616;9.548;2023-05-11T13:16:23;96644.09;;;13.80;93.33
9139;BME280;4604;48.616;9.548;2023-05-11T13:18:57;96637.94;;;13.55;97.09
9139;BME280;4604;48.616;9.548;2023-05-11T13:21:26;96651.88;;;13.74;94.01
9139;BME280;4604;48.616;9.548;2023-05-11T13:23:54;96633.13;;;13.83;95.15
9139;BME280;4604;48.616;9.548;2023-05-11T13:26:21;96637.53;;;14.24;90.32
9139;BME280;4604;48.616;9.548;2023-05-11T13:28:48;96612.66;;;14.25;91.22
9139;BME280;4604;48.616;9.548;2023-05-11T13:31:15;96629.84;;;14.45;90.20